createdAt,value
2023-03-28T00:01:12.417Z,-1.92
2023-03-28T00:03:42.252Z,-2.03
2023-03-28T00:06:11.831Z,-1.97
2023-03-28T00:08:40.178Z,-2.06
2023-03-28T00:11:29.633Z,-2.04
2023-03-28T00:14:00.813Z,-2.33
2023-03-28T00:16:34.329Z,-2.37
2023-03-28T00:19:11.658Z,-2.50
2023-03-28T00:21:41.420Z,-2.46
2023-03-28T00:24:13.972Z,-2.27
2023-03-28T00:26:42.388Z,-2.33
2023-03-28T00:29:12.068Z,-2.23
2023-03-28T00:31:39.213Z,-2.21
2023-03-28T00:34:07.046Z,-2.32
2023-03-28T00:36:34.620Z,-2.29
2023-03-28T00:39:06.790Z,-2.35
2023-03-28T00:41:39.761Z,-2.38
2023-03-28T00:44:40.360Z,-2.42
2023-03-28T00:47:20.641Z,-2.30
2023-03-28T00:49:49.781Z,-2.29
2023-03-28T00:52:17.913Z,-2.32
2023-03-28T00:54:46.192Z,-2.48
2023-03-28T00:57:16.443Z,-2.44
2023-03-28T00:59:44.028Z,-2.30
2023-03-28T01:02:11.860Z,-2.42
2023-03-28T01:04:57.705Z,-2.62
2023-03-28T01:07:27.224Z,-2.51
2023-03-28T01:09:54.692Z,-2.51
2023-03-28T01:12:22.820Z,-2.53
2023-03-28T01:14:50.357Z,-2.43
2023-03-28T01:17:17.386Z,-2.53
2023-03-28T01:20:03.957Z,-2.90
2023-03-28T01:22:56.971Z,-3.24
2023-03-28T01:25:49.921Z,-2.91
2023-03-28T01:28:29.065Z,-3.13
2023-03-28T01:31:26.454Z,-3.20
2023-03-28T01:34:52.006Z,-3.38
2023-03-28T01:37:46.939Z,-3.34
2023-03-28T01:40:36.220Z,-3.10
2023-03-28T01:43:22.795Z,-2.96
2023-03-28T01:46:13.984Z,-2.77
2023-03-28T01:48:57.976Z,-3.12
2023-03-28T01:51:28.725Z,-2.90
2023-03-28T01:54:19.546Z,-3.01
2023-03-28T01:56:51.453Z,-2.99
2023-03-28T01:59:42.955Z,-3.22
2023-03-28T02:02:39.158Z,-3.11
2023-03-28T02:05:32.916Z,-3.02
2023-03-28T02:08:02.789Z,-2.92
2023-03-28T02:10:42.319Z,-3.03
2023-03-28T02:13:35.978Z,-2.94
2023-03-28T02:16:23.967Z,-2.95
2023-03-28T02:19:24.958Z,-3.03
2023-03-28T02:22:20.224Z,-3.05
2023-03-28T02:25:16.521Z,-3.11
2023-03-28T02:28:01.235Z,-3.24
2023-03-28T02:30:37.418Z,-3.10
2023-03-28T02:33:08.556Z,-3.34
2023-03-28T02:35:58.117Z,-3.29
2023-03-28T02:38:40.375Z,-3.22
2023-03-28T02:41:13.138Z,-3.14
2023-03-28T02:43:41.320Z,-3.16
2023-03-28T02:46:29.159Z,-3.29
2023-03-28T02:48:55.652Z,-3.51
2023-03-28T02:51:30.088Z,-3.30
2023-03-28T02:54:08.638Z,-3.50
2023-03-28T02:56:46.038Z,-3.68
2023-03-28T02:59:40.823Z,-3.75
2023-03-28T03:02:08.314Z,-3.79
2023-03-28T03:04:34.814Z,-3.69
2023-03-28T03:07:02.500Z,-3.55
2023-03-28T03:09:31.123Z,-3.47
2023-03-28T03:11:57.554Z,-3.38
2023-03-28T03:14:24.169Z,-3.37
2023-03-28T03:16:52.819Z,-3.63
2023-03-28T03:19:19.408Z,-3.92
2023-03-28T03:21:46.537Z,-3.90
2023-03-28T03:24:14.273Z,-4.04
2023-03-28T03:26:42.912Z,-4.05
2023-03-28T03:29:15.202Z,-4.00
2023-03-28T03:31:41.714Z,-4.08
2023-03-28T03:34:24.231Z,-4.04
2023-03-28T03:36:54.917Z,-3.87
2023-03-28T03:39:22.281Z,-3.66
2023-03-28T03:41:48.855Z,-3.52
2023-03-28T03:44:15.307Z,-3.50
2023-03-28T03:46:41.927Z,-3.62
2023-03-28T03:49:09.734Z,-3.70
2023-03-28T03:51:36.781Z,-3.87
2023-03-28T03:54:03.288Z,-3.66
2023-03-28T03:56:34.627Z,-3.89
2023-03-28T03:59:01.131Z,-3.96
2023-03-28T04:01:32.421Z,-3.84
2023-03-28T04:04:16.584Z,-3.82
2023-03-28T04:07:02.346Z,-3.83
2023-03-28T04:09:28.916Z,-3.70
2023-03-28T04:11:59.534Z,-3.84
2023-03-28T04:14:27.998Z,-3.76
2023-03-28T04:17:16.084Z,-3.70
2023-03-28T04:19:43.720Z,-3.79
2023-03-28T04:22:12.709Z,-4.11
2023-03-28T04:24:45.774Z,-3.88
2023-03-28T04:27:18.187Z,-3.91
2023-03-28T04:29:46.904Z,-3.97
2023-03-28T04:32:35.840Z,-4.26
2023-03-28T04:35:08.108Z,-4.19
2023-03-28T04:37:37.692Z,-4.32
2023-03-28T04:40:11.955Z,-4.16
2023-03-28T04:42:47.055Z,-4.06
2023-03-28T04:45:36.589Z,-4.12
2023-03-28T04:48:12.735Z,-3.97
2023-03-28T04:50:39.824Z,-3.96
2023-03-28T04:53:06.358Z,-4.04
2023-03-28T04:55:33.063Z,-4.02
2023-03-28T04:58:06.167Z,-4.31
2023-03-28T05:00:33.027Z,-4.12
2023-03-28T05:03:05.034Z,-4.06
2023-03-28T05:05:41.606Z,-3.90
2023-03-28T05:08:12.999Z,-3.90
2023-03-28T05:10:40.074Z,-3.92
2023-03-28T05:13:08.401Z,-4.25
2023-03-28T05:15:43.701Z,-4.32
2023-03-28T05:18:26.564Z,-4.10
2023-03-28T05:20:53.024Z,-4.35
2023-03-28T05:23:19.555Z,-4.06
2023-03-28T05:25:51.792Z,-3.91
2023-03-28T05:28:18.983Z,-3.79
2023-03-28T05:30:49.748Z,-3.82
2023-03-28T05:33:16.546Z,-3.78
2023-03-28T05:35:44.260Z,-3.76
2023-03-28T05:38:10.775Z,-3.65
2023-03-28T05:40:37.654Z,-3.61
2023-03-28T05:43:04.628Z,-3.22
2023-03-28T05:45:32.542Z,-2.61
2023-03-28T05:48:19.827Z,-2.69
2023-03-28T05:50:51.016Z,-2.88
2023-03-28T05:53:17.736Z,-3.33
2023-03-28T05:55:44.426Z,-3.65
2023-03-28T05:58:11.047Z,-3.42
2023-03-28T06:00:39.935Z,-3.33
2023-03-28T06:03:07.791Z,-2.93
2023-03-28T06:05:37.521Z,-2.75
2023-03-28T06:08:13.158Z,-1.97
2023-03-28T06:10:39.679Z,-1.53
2023-03-28T06:13:16.327Z,-1.04
2023-03-28T06:15:45.542Z,0.99
2023-03-28T06:18:12.115Z,2.23
2023-03-28T06:20:44.176Z,2.07
2023-03-28T06:23:11.016Z,1.96
2023-03-28T06:25:37.719Z,1.18
2023-03-28T06:28:04.471Z,1.71
2023-03-28T06:30:32.928Z,2.83
2023-03-28T06:33:00.275Z,4.04
2023-03-28T06:35:29.558Z,4.56
2023-03-28T06:37:56.335Z,3.51
2023-03-28T06:40:26.497Z,3.31
2023-03-28T06:42:53.437Z,2.91
2023-03-28T06:45:36.732Z,3.49
2023-03-28T06:48:07.574Z,3.28
2023-03-28T06:50:54.308Z,3.30
2023-03-28T06:53:22.927Z,5.31
2023-03-28T06:55:51.240Z,5.55
2023-03-28T06:58:18.464Z,5.10
2023-03-28T07:00:52.776Z,5.26
2023-03-28T07:03:36.867Z,6.05
2023-03-28T07:06:06.672Z,6.60
2023-03-28T07:08:34.056Z,5.63
2023-03-28T07:11:00.947Z,6.62
2023-03-28T07:13:28.470Z,8.85
2023-03-28T07:16:05.186Z,7.94
2023-03-28T07:18:32.409Z,8.62
2023-03-28T07:21:03.906Z,7.60
2023-03-28T07:23:31.776Z,8.26
2023-03-28T07:25:58.500Z,8.92
2023-03-28T07:28:25.087Z,9.25
2023-03-28T07:30:54.223Z,9.71
2023-03-28T07:33:27.127Z,9.81
2023-03-28T07:36:11.985Z,10.17
2023-03-28T07:38:39.058Z,8.99
2023-03-28T07:41:06.176Z,7.77
2023-03-28T07:43:32.716Z,8.51
2023-03-28T07:46:03.214Z,8.82
2023-03-28T07:48:30.576Z,7.67
2023-03-28T07:50:57.277Z,7.42
2023-03-28T07:53:23.847Z,7.83
2023-03-28T07:55:54.837Z,7.31
2023-03-28T07:58:25.295Z,7.57
2023-03-28T08:00:54.680Z,8.44
2023-03-28T08:03:30.554Z,9.07
2023-03-28T08:06:02.762Z,10.25
2023-03-28T08:08:30.893Z,10.02
2023-03-28T08:11:13.379Z,9.91
2023-03-28T08:13:40.243Z,10.49
2023-03-28T08:16:16.235Z,7.92
2023-03-28T08:18:42.790Z,10.65
2023-03-28T08:21:09.962Z,10.17
2023-03-28T08:23:36.785Z,10.41
2023-03-28T08:26:22.594Z,10.60
2023-03-28T08:28:54.784Z,11.64
2023-03-28T08:31:26.641Z,10.28
2023-03-28T08:33:56.832Z,10.80
2023-03-28T08:36:28.608Z,9.77
2023-03-28T08:39:00.463Z,10.00
2023-03-28T08:42:06.625Z,10.05
2023-03-28T08:44:48.459Z,9.65
2023-03-28T08:47:28.818Z,9.90
2023-03-28T08:50:01.989Z,10.23
2023-03-28T08:52:30.444Z,10.70
2023-03-28T08:55:18.247Z,11.07
2023-03-28T08:57:45.619Z,10.02
2023-03-28T09:00:48.544Z,9.87
2023-03-28T09:03:18.849Z,10.21
2023-03-28T09:06:11.433Z,10.17
2023-03-28T09:09:01.726Z,9.69
2023-03-28T09:11:54.707Z,10.74
2023-03-28T09:15:00.282Z,10.84
2023-03-28T09:17:47.852Z,8.73
2023-03-28T09:20:33.204Z,10.38
2023-03-28T09:23:48.843Z,11.79
2023-03-28T09:26:57.071Z,10.90
2023-03-28T09:29:26.131Z,8.83
2023-03-28T09:32:00.025Z,10.26
2023-03-28T09:34:33.603Z,9.79
2023-03-28T09:37:13.534Z,8.60
2023-03-28T09:39:49.374Z,8.91
2023-03-28T09:42:22.948Z,10.30
2023-03-28T09:45:18.267Z,10.36
2023-03-28T09:48:19.779Z,11.19
2023-03-28T09:50:47.364Z,11.72
2023-03-28T09:53:21.894Z,11.73
2023-03-28T09:55:57.945Z,12.15
2023-03-28T09:58:57.393Z,12.13
2023-03-28T10:01:43.613Z,12.05
2023-03-28T10:04:15.460Z,12.47
2023-03-28T10:07:09.699Z,11.26
2023-03-28T10:09:51.461Z,10.64
2023-03-28T10:12:23.037Z,10.47
2023-03-28T10:14:50.784Z,10.34
2023-03-28T10:17:37.264Z,11.62
2023-03-28T10:20:21.718Z,11.77
2023-03-28T10:22:54.773Z,11.62
2023-03-28T10:25:29.550Z,12.09
2023-03-28T10:27:56.446Z,11.39
2023-03-28T10:30:26.175Z,11.78
2023-03-28T10:33:17.518Z,11.88
2023-03-28T10:36:07.674Z,11.97
2023-03-28T10:38:45.835Z,11.97
2023-03-28T10:41:33.036Z,12.38
2023-03-28T10:44:19.285Z,11.98
2023-03-28T10:47:16.156Z,12.20
2023-03-28T10:49:51.597Z,11.08
2023-03-28T10:52:48.577Z,10.32
2023-03-28T10:55:31.614Z,10.99
2023-03-28T10:58:32.989Z,11.04
2023-03-28T11:01:24.840Z,10.83
2023-03-28T11:04:26.365Z,10.35
2023-03-28T11:07:04.308Z,10.25
2023-03-28T11:10:24.143Z,10.83
2023-03-28T11:13:23.827Z,11.30
2023-03-28T11:16:06.852Z,10.87
2023-03-28T11:18:57.881Z,10.48
2023-03-28T11:21:52.176Z,10.45
2023-03-28T11:24:28.413Z,11.13
2023-03-28T11:27:40.696Z,11.25
2023-03-28T11:30:20.903Z,11.96
2023-03-28T11:33:24.664Z,13.27
2023-03-28T11:36:07.274Z,14.28
2023-03-28T11:38:39.050Z,14.34
2023-03-28T11:41:11.523Z,15.51
2023-03-28T11:44:02.346Z,14.38
2023-03-28T11:46:40.737Z,14.20
2023-03-28T11:49:36.466Z,13.82
2023-03-28T11:52:23.895Z,15.27
2023-03-28T11:55:04.532Z,15.53
2023-03-28T11:57:54.485Z,15.90
2023-03-28T12:00:33.736Z,16.46
2023-03-28T12:03:13.714Z,15.33
2023-03-28T12:06:17.313Z,16.53
2023-03-28T12:08:50.963Z,17.14
2023-03-28T12:11:24.207Z,16.34
2023-03-28T12:14:12.637Z,15.23
2023-03-28T12:16:49.634Z,17.23
2023-03-28T12:19:33.790Z,13.40
2023-03-28T12:22:18.914Z,13.74
2023-03-28T12:24:57.226Z,15.89
2023-03-28T12:28:00.136Z,14.57
2023-03-28T12:30:45.564Z,16.15
2023-03-28T12:33:37.343Z,13.77
2023-03-28T12:36:35.849Z,13.95
2023-03-28T12:39:42.232Z,14.05
2023-03-28T12:42:21.320Z,13.89
2023-03-28T12:44:58.244Z,12.40
2023-03-28T12:47:32.458Z,12.27
2023-03-28T12:50:04.928Z,14.12
2023-03-28T12:52:34.644Z,13.99
2023-03-28T12:55:27.542Z,13.34
2023-03-28T12:58:22.074Z,12.78
2023-03-28T13:01:09.453Z,11.55
2023-03-28T13:03:48.228Z,11.45
2023-03-28T13:06:40.836Z,12.24
2023-03-28T13:09:41.718Z,12.90
2023-03-28T13:12:29.869Z,14.50
2023-03-28T13:15:22.285Z,14.70
2023-03-28T13:18:17.863Z,13.36
2023-03-28T13:20:46.975Z,13.68
2023-03-28T13:23:15.520Z,12.49
2023-03-28T13:25:44.574Z,11.77
2023-03-28T13:28:11.162Z,11.79
2023-03-28T13:30:43.160Z,12.43
2023-03-28T13:33:24.751Z,12.87
2023-03-28T13:36:00.333Z,12.66
2023-03-28T13:38:26.979Z,12.42
2023-03-28T13:40:56.307Z,11.81
2023-03-28T13:43:35.950Z,11.96
2023-03-28T13:46:12.526Z,12.09
2023-03-28T13:49:00.127Z,12.21
2023-03-28T13:51:31.267Z,11.28
2023-03-28T13:53:57.783Z,10.56
2023-03-28T13:56:27.599Z,10.64
2023-03-28T13:58:56.045Z,10.45
2023-03-28T14:01:34.723Z,10.38
2023-03-28T14:04:01.210Z,11.11
2023-03-28T14:06:29.916Z,11.21
2023-03-28T14:09:01.130Z,10.66
2023-03-28T14:11:37.569Z,10.38
2023-03-28T14:14:33.336Z,9.97
2023-03-28T14:17:06.290Z,9.91
2023-03-28T14:19:43.146Z,9.91
2023-03-28T14:22:23.217Z,9.96
2023-03-28T14:24:52.347Z,9.87
2023-03-28T14:27:41.114Z,9.99
2023-03-28T14:30:37.128Z,10.03
2023-03-28T14:33:13.483Z,9.84
2023-03-28T14:35:46.439Z,9.58
2023-03-28T14:38:14.808Z,9.65
2023-03-28T14:40:45.682Z,9.39
2023-03-28T14:43:13.581Z,9.36
2023-03-28T14:45:47.725Z,9.67
2023-03-28T14:48:19.090Z,9.86
2023-03-28T14:50:47.841Z,9.82
2023-03-28T14:53:21.933Z,9.85
2023-03-28T14:55:50.995Z,9.65
2023-03-28T14:58:19.078Z,9.45
2023-03-28T15:00:48.241Z,8.85
2023-03-28T15:03:18.323Z,8.86
2023-03-28T15:05:48.613Z,8.82
2023-03-28T15:08:30.831Z,8.85
2023-03-28T15:11:03.258Z,8.99
2023-03-28T15:13:38.816Z,9.36
2023-03-28T15:16:08.041Z,9.53
2023-03-28T15:18:44.345Z,9.70
2023-03-28T15:21:11.673Z,10.02
2023-03-28T15:23:49.129Z,10.09
2023-03-28T15:26:25.468Z,10.21
2023-03-28T15:28:54.828Z,10.20
2023-03-28T15:31:22.229Z,10.35
2023-03-28T15:33:50.576Z,10.30
2023-03-28T15:36:20.100Z,10.25
2023-03-28T15:38:51.231Z,10.04
2023-03-28T15:41:39.645Z,9.76
2023-03-28T15:44:30.314Z,9.66
2023-03-28T15:47:23.721Z,9.60
2023-03-28T15:49:50.971Z,9.59
2023-03-28T15:52:20.208Z,9.74
2023-03-28T15:54:52.064Z,9.58
2023-03-28T15:57:23.158Z,9.38
2023-03-28T15:59:54.916Z,9.55
2023-03-28T16:02:24.099Z,9.47
2023-03-28T16:05:09.991Z,9.35
2023-03-28T16:07:46.371Z,9.03
2023-03-28T16:10:16.622Z,9.14
2023-03-28T16:13:03.152Z,9.13
2023-03-28T16:15:51.140Z,9.03
2023-03-28T16:18:33.357Z,8.87
2023-03-28T16:21:02.910Z,8.83
2023-03-28T16:23:29.347Z,8.92
2023-03-28T16:25:55.853Z,8.81
2023-03-28T16:28:22.332Z,8.87
2023-03-28T16:30:49.051Z,8.85
2023-03-28T16:33:16.855Z,9.17
2023-03-28T16:35:43.417Z,9.46
2023-03-28T16:38:11.534Z,8.93
2023-03-28T16:40:38.583Z,8.73
2023-03-28T16:43:05.407Z,8.75
2023-03-28T16:45:31.916Z,8.70
2023-03-28T16:47:58.560Z,8.49
2023-03-28T16:50:25.086Z,8.49
2023-03-28T16:52:51.516Z,8.51
2023-03-28T16:55:18.837Z,8.68
2023-03-28T16:57:46.295Z,8.43
2023-03-28T17:00:17.742Z,8.42
2023-03-28T17:02:48.124Z,8.18
2023-03-28T17:05:16.233Z,8.30
2023-03-28T17:07:42.664Z,8.24
2023-03-28T17:10:10.140Z,8.17
2023-03-28T17:12:36.899Z,7.85
2023-03-28T17:15:03.833Z,7.77
2023-03-28T17:17:30.688Z,7.69
2023-03-28T17:19:57.138Z,7.56
2023-03-28T17:22:23.617Z,7.72
2023-03-28T17:24:50.823Z,7.56
2023-03-28T17:27:17.529Z,7.48
2023-03-28T17:29:44.003Z,7.39
2023-03-28T17:32:11.387Z,7.47
2023-03-28T17:34:38.007Z,7.51
2023-03-28T17:37:04.560Z,7.50
2023-03-28T17:39:31.746Z,7.37
2023-03-28T17:41:58.326Z,7.20
2023-03-28T17:44:24.871Z,7.18
2023-03-28T17:46:51.909Z,7.16
2023-03-28T17:49:18.689Z,7.12
2023-03-28T17:51:45.480Z,7.19
2023-03-28T17:54:12.103Z,7.11
2023-03-28T17:56:39.678Z,7.05
2023-03-28T17:59:06.764Z,7.09
2023-03-28T18:01:33.713Z,6.97
2023-03-28T18:04:00.498Z,7.06
2023-03-28T18:06:45.705Z,7.06
2023-03-28T18:09:12.243Z,7.12
2023-03-28T18:11:39.226Z,7.15
2023-03-28T18:14:08.343Z,7.14
2023-03-28T18:16:35.680Z,7.07
2023-03-28T18:19:02.237Z,6.96
2023-03-28T18:21:28.860Z,6.94
2023-03-28T18:23:55.394Z,6.83
2023-03-28T18:26:25.500Z,7.04
2023-03-28T18:28:52.091Z,6.95
2023-03-28T18:31:20.156Z,7.02
2023-03-28T18:33:46.860Z,6.93
2023-03-28T18:36:14.126Z,6.92
2023-03-28T18:38:43.013Z,6.80
2023-03-28T18:41:12.292Z,6.88
2023-03-28T18:43:41.336Z,6.86
2023-03-28T18:46:08.654Z,6.91
2023-03-28T18:48:36.035Z,6.85
2023-03-28T18:51:11.643Z,6.85
2023-03-28T18:53:38.267Z,6.61
2023-03-28T18:56:05.996Z,6.66
2023-03-28T18:58:34.016Z,6.58
2023-03-28T19:01:03.438Z,6.75
2023-03-28T19:03:34.492Z,6.83
2023-03-28T19:06:02.814Z,6.76
2023-03-28T19:08:30.657Z,6.58
2023-03-28T19:11:00.063Z,6.49
2023-03-28T19:13:28.630Z,6.57
2023-03-28T19:16:00.380Z,6.23
2023-03-28T19:18:27.368Z,6.08
2023-03-28T19:20:55.533Z,6.02
2023-03-28T19:23:23.133Z,5.99
2023-03-28T19:25:49.727Z,6.41
2023-03-28T19:28:17.546Z,6.10
2023-03-28T19:30:44.450Z,5.74
2023-03-28T19:33:11.332Z,5.50
2023-03-28T19:35:39.372Z,5.33
2023-03-28T19:38:05.983Z,5.31
2023-03-28T19:40:32.567Z,5.28
2023-03-28T19:42:59.076Z,5.41
2023-03-28T19:45:26.097Z,5.18
2023-03-28T19:47:52.599Z,5.16
2023-03-28T19:50:19.232Z,5.21
2023-03-28T19:52:45.726Z,5.31
2023-03-28T19:55:12.191Z,5.18
2023-03-28T19:57:38.801Z,5.31
2023-03-28T20:00:06.964Z,5.33
2023-03-28T20:02:39.064Z,5.31
2023-03-28T20:05:06.113Z,5.36
2023-03-28T20:07:32.531Z,5.40
2023-03-28T20:09:59.701Z,5.42
2023-03-28T20:12:26.170Z,5.31
2023-03-28T20:14:54.412Z,5.33
2023-03-28T20:17:22.091Z,5.51
2023-03-28T20:19:51.466Z,5.61
2023-03-28T20:22:19.781Z,5.25
2023-03-28T20:24:48.640Z,5.64
2023-03-28T20:27:16.354Z,5.74
2023-03-28T20:29:42.833Z,5.58
2023-03-28T20:32:10.407Z,5.37
2023-03-28T20:34:37.110Z,5.60
2023-03-28T20:37:03.552Z,5.33
2023-03-28T20:39:34.114Z,5.28
2023-03-28T20:42:05.454Z,5.57
2023-03-28T20:44:37.887Z,5.64
2023-03-28T20:47:09.009Z,5.64
2023-03-28T20:49:38.115Z,5.60
2023-03-28T20:52:06.507Z,5.59
2023-03-28T20:54:33.163Z,5.49
2023-03-28T20:56:59.641Z,5.16
2023-03-28T20:59:27.267Z,5.29
2023-03-28T21:01:54.584Z,5.33
2023-03-28T21:04:22.117Z,5.25
2023-03-28T21:06:49.944Z,5.01
2023-03-28T21:09:17.761Z,4.95
2023-03-28T21:11:44.663Z,5.07
2023-03-28T21:14:13.480Z,5.21
2023-03-28T21:16:40.420Z,5.40
2023-03-28T21:19:06.899Z,5.35
2023-03-28T21:21:34.014Z,5.05
2023-03-28T21:24:01.736Z,5.26
2023-03-28T21:26:29.041Z,5.28
2023-03-28T21:28:55.862Z,5.42
2023-03-28T21:31:25.754Z,5.43
2023-03-28T21:33:57.114Z,5.50
2023-03-28T21:36:24.593Z,5.50
2023-03-28T21:38:51.444Z,5.37
2023-03-28T21:41:17.918Z,5.21
2023-03-28T21:43:44.612Z,5.14
2023-03-28T21:46:11.515Z,4.97
2023-03-28T21:48:38.585Z,5.10
2023-03-28T21:51:05.800Z,5.07
2023-03-28T21:53:35.133Z,5.04
2023-03-28T21:56:01.840Z,5.11
2023-03-28T21:58:31.854Z,5.00
2023-03-28T22:00:59.483Z,5.01
2023-03-28T22:03:27.145Z,5.06
2023-03-28T22:05:54.575Z,4.99
2023-03-28T22:08:22.475Z,4.94
2023-03-28T22:10:52.629Z,4.73
2023-03-28T22:13:19.949Z,4.59
2023-03-28T22:15:46.434Z,4.46
2023-03-28T22:18:13.237Z,4.46
2023-03-28T22:20:43.436Z,4.54
2023-03-28T22:23:10.735Z,4.60
2023-03-28T22:25:38.821Z,4.65
2023-03-28T22:28:08.277Z,4.50
2023-03-28T22:30:36.816Z,4.62
2023-03-28T22:33:04.256Z,4.70
2023-03-28T22:35:32.198Z,4.44
2023-03-28T22:37:59.632Z,4.42
2023-03-28T22:40:26.311Z,4.34
2023-03-28T22:42:54.093Z,4.27
2023-03-28T22:45:25.009Z,4.36
2023-03-28T22:47:51.531Z,4.40
2023-03-28T22:50:19.349Z,4.39
2023-03-28T22:52:50.269Z,4.62
2023-03-28T22:55:17.271Z,4.51
2023-03-28T22:57:44.774Z,4.53
2023-03-28T23:00:13.512Z,4.51
2023-03-28T23:02:40.464Z,4.45
2023-03-28T23:05:08.132Z,4.65
2023-03-28T23:07:35.882Z,4.56
2023-03-28T23:10:08.436Z,4.54
2023-03-28T23:12:35.336Z,4.63
2023-03-28T23:15:01.772Z,4.48
2023-03-28T23:17:28.450Z,4.41
2023-03-28T23:19:55.023Z,4.21
2023-03-28T23:22:22.385Z,4.18
2023-03-28T23:24:51.934Z,4.21
2023-03-28T23:27:19.650Z,4.05
2023-03-28T23:29:46.613Z,4.38
2023-03-28T23:32:13.124Z,4.22
2023-03-28T23:34:40.209Z,4.24
2023-03-28T23:37:07.091Z,4.27
2023-03-28T23:39:33.614Z,4.22
2023-03-28T23:42:00.124Z,4.37
2023-03-28T23:44:27.755Z,4.64
2023-03-28T23:46:56.171Z,4.41
2023-03-28T23:49:22.642Z,4.28
2023-03-28T23:51:49.240Z,4.32
2023-03-28T23:54:18.525Z,4.54
2023-03-28T23:56:45.711Z,4.53
2023-03-28T23:59:12.315Z,4.58
